Terminal Aerodrome Forecast
Issued by NWS

Home | Current Version | Previous Version | Graphics & Text | Print | Product List | Glossary On
Versions: 1 2 3 4 5 6 7 8 9 10 11 12 13 14 15 16
000
FTUS42 KMHX 241121
TAFISO
TAF
KISO 241121Z 2412/2512 24005KT P6SM BKN014
     FM241400 21005KT P6SM OVC025
     FM241700 19010KT P6SM VCSH OVC025
      TEMPO 2417/2420 4SM TS OVC015CB
     FM242000 19010KT 6SM -TSRA OVC025CB
     FM250000 18010KT 6SM -SHRA OVC015
     FM250600 20010KT P6SM OVC015
      AMD LTD TO CLD VIS AND WIND=

USA.gov is the U.S. government's official web portal to all federal, state and local government web resources and services.